PWSweather.com
Personal Weather Stations
Station Observations
UISISLE1
Newport, Isle ofWight, ISLE OF WIGHT PO30 2JX

NewportIsle ofWight, ISLE OF WIGHT PO30 2JX

Lat: 50.72, Lon: -1.27

Elevation: 45

Station Type: Davis Vantage Pro Plus

http://www.isleofwightweather.co.uk

High Low Average
Temperature 71.3°F21.8°C 57.0°F13.9°C 62.4°F16.9°C
Dew Point 58.8°F14.9°C 55.9°F13.3°C 57.5°F14.2°C
Winds 12.3 mph 19.8 kmh 1.5 mph 2.4 kmh 6.0 mph WSW9.7 kmh WSW
Wind Gusts 20.0 mph32.2 kmh 2.0 mph3.2 kmh 10.0 mph16.1 kmh
Humidity 97% 61% 85%
Pressure 30.20 in1022.7 mb 30.06 in1017.9 mb -
Precipitation 0.00 in0.0 mm - -
Hour Temp Dew Point Humidity Winds Wind Gusts Pressure Precip Precip Rate Daily Precip Total
12:00 AM 58.5°F14.7°C 57.4°F14.1°C 96% 3.3 mph SW5.3 kmh SW 6.2 mph10.0 kmh 30.06 in1017.9 mb - 0.00 in0.0 mm 0.00 in0.0 mm
12:15 AM 58.6°F14.8°C 57.5°F14.2°C 96% 3.1 mph WSW5.0 kmh WSW 10.0 mph16.1 kmh 30.06 in1017.9 mb - 0.00 in0.0 mm 0.00 in0.0 mm
12:30 AM 58.5°F14.7°C 57.4°F14.1°C 96% 5.0 mph WSW8.0 kmh WSW 11.0 mph17.7 kmh 30.06 in1017.9 mb - 0.00 in0.0 mm 0.00 in0.0 mm
12:45 AM 58.5°F14.7°C 57.4°F14.1°C 96% 3.6 mph WSW5.8 kmh WSW 6.0 mph9.7 kmh 30.06 in1017.9 mb - 0.00 in0.0 mm 0.00 in0.0 mm
01:00 AM 58.6°F14.8°C 57.5°F14.2°C 96% 3.1 mph WSW5.0 kmh WSW 6.0 mph9.7 kmh 30.06 in1017.9 mb - 0.00 in0.0 mm 0.00 in0.0 mm
01:15 AM 58.7°F14.8°C 57.6°F14.2°C 96% 3.9 mph SW6.3 kmh SW 5.0 mph8.0 kmh 30.06 in1017.9 mb - 0.00 in0.0 mm 0.00 in0.0 mm
01:30 AM 58.7°F14.8°C 57.9°F14.4°C 97% 3.7 mph SW6.0 kmh SW 8.0 mph12.9 kmh 30.06 in1017.9 mb - 0.00 in0.0 mm 0.00 in0.0 mm
01:45 AM 58.7°F14.8°C 57.6°F14.2°C 96% 5.1 mph SW8.2 kmh SW 8.0 mph12.9 kmh 30.06 in1017.9 mb - 0.00 in0.0 mm 0.00 in0.0 mm
02:00 AM 58.5°F14.7°C 57.4°F14.1°C 96% 2.1 mph WSW3.4 kmh WSW 5.0 mph8.0 kmh 30.07 in1018.3 mb - 0.00 in0.0 mm 0.00 in0.0 mm
02:15 AM 58.3°F14.6°C 57.2°F14.0°C 96% 6.9 mph SW11.1 kmh SW 10.0 mph16.1 kmh 30.06 in1017.9 mb - 0.00 in0.0 mm 0.00 in0.0 mm
02:30 AM 57.8°F14.3°C 56.7°F13.7°C 96% 3.8 mph WSW6.1 kmh WSW 8.2 mph13.2 kmh 30.07 in1018.3 mb - 0.00 in0.0 mm 0.00 in0.0 mm
02:45 AM 57.6°F14.2°C 56.5°F13.6°C 96% 3.5 mph SW5.6 kmh SW 11.0 mph17.7 kmh 30.07 in1018.3 mb - 0.00 in0.0 mm 0.00 in0.0 mm
03:00 AM 57.6°F14.2°C 56.4°F13.6°C 96% 5.4 mph WSW8.7 kmh WSW 10.0 mph16.1 kmh 30.07 in1018.3 mb - 0.00 in0.0 mm 0.00 in0.0 mm
03:15 AM 57.6°F14.2°C 56.5°F13.6°C 96% 2.5 mph SW4.0 kmh SW 4.0 mph6.4 kmh 30.07 in1018.3 mb - 0.00 in0.0 mm 0.00 in0.0 mm
03:30 AM 57.6°F14.2°C 56.5°F13.6°C 96% 2.7 mph WSW4.3 kmh WSW 5.0 mph8.0 kmh 30.07 in1018.3 mb - 0.00 in0.0 mm 0.00 in0.0 mm
03:45 AM 57.7°F14.3°C 56.6°F13.7°C 96% 1.9 mph W3.1 kmh W 4.1 mph6.6 kmh 30.08 in1018.6 mb - 0.00 in0.0 mm 0.00 in0.0 mm
04:00 AM 57.8°F14.3°C 56.7°F13.7°C 96% 2.5 mph W4.0 kmh W 4.1 mph6.6 kmh 30.08 in1018.6 mb - 0.00 in0.0 mm 0.00 in0.0 mm
04:15 AM 57.7°F14.3°C 56.6°F13.7°C 96% 1.7 mph WSW2.7 kmh WSW 3.0 mph4.8 kmh 30.08 in1018.6 mb - 0.00 in0.0 mm 0.00 in0.0 mm
04:30 AM 57.2°F14.0°C 56.1°F13.4°C 96% 2.4 mph W3.9 kmh W 5.0 mph8.0 kmh 30.08 in1018.6 mb - 0.00 in0.0 mm 0.00 in0.0 mm
04:45 AM 57.0°F13.9°C 55.9°F13.3°C 96% 2.1 mph W3.4 kmh W 4.1 mph6.6 kmh 30.08 in1018.6 mb - 0.00 in0.0 mm 0.00 in0.0 mm
05:00 AM 57.0°F13.9°C 55.9°F13.3°C 96% 2.3 mph W3.7 kmh W 5.0 mph8.0 kmh 30.08 in1018.6 mb - 0.00 in0.0 mm 0.00 in0.0 mm
05:15 AM 57.2°F14.0°C 56.1°F13.4°C 96% 2.9 mph WSW4.7 kmh WSW 5.1 mph8.2 kmh 30.09 in1019.0 mb - 0.00 in0.0 mm 0.00 in0.0 mm
05:30 AM 57.4°F14.1°C 56.3°F13.5°C 96% 2.0 mph NW3.2 kmh NW 4.1 mph6.6 kmh 30.09 in1019.0 mb - 0.00 in0.0 mm 0.00 in0.0 mm
05:45 AM 57.7°F14.3°C 56.3°F13.5°C 95% 1.5 mph WSW2.4 kmh WSW 2.0 mph3.2 kmh 30.09 in1019.0 mb - 0.00 in0.0 mm 0.00 in0.0 mm
06:00 AM 58.1°F14.5°C 56.7°F13.7°C 95% 3.3 mph SW5.3 kmh SW 7.0 mph11.3 kmh 30.10 in1019.3 mb - 0.00 in0.0 mm 0.00 in0.0 mm
06:15 AM 58.4°F14.7°C 57.0°F13.9°C 95% 7.9 mph WSW12.7 kmh WSW 11.0 mph17.7 kmh 30.11 in1019.6 mb - 0.00 in0.0 mm 0.00 in0.0 mm
06:30 AM 58.6°F14.8°C 56.9°F13.8°C 94% 4.9 mph WSW7.9 kmh WSW 7.0 mph11.3 kmh 30.11 in1019.6 mb - 0.00 in0.0 mm 0.00 in0.0 mm
06:45 AM 58.9°F14.9°C 57.2°F14.0°C 94% 2.6 mph W4.2 kmh W 6.0 mph9.7 kmh 30.12 in1020.0 mb - 0.00 in0.0 mm 0.00 in0.0 mm
07:00 AM 58.9°F14.9°C 56.9°F13.8°C 93% 3.7 mph WSW6.0 kmh WSW 5.1 mph8.2 kmh 30.12 in1020.0 mb - 0.00 in0.0 mm 0.00 in0.0 mm
07:15 AM 59.4°F15.2°C 57.4°F14.1°C 93% 3.4 mph SW5.5 kmh SW 8.0 mph12.9 kmh 30.12 in1020.0 mb - 0.00 in0.0 mm 0.00 in0.0 mm
07:30 AM 59.7°F15.4°C 57.4°F14.1°C 92% 4.9 mph W7.9 kmh W 9.0 mph14.5 kmh 30.13 in1020.3 mb - 0.00 in0.0 mm 0.00 in0.0 mm
07:45 AM 59.7°F15.4°C 57.1°F13.9°C 91% 3.5 mph WSW5.6 kmh WSW 10.3 mph16.6 kmh 30.13 in1020.3 mb - 0.00 in0.0 mm 0.00 in0.0 mm
08:00 AM 60.0°F15.6°C 57.1°F13.9°C 90% 4.2 mph W6.8 kmh W 8.2 mph13.2 kmh 30.14 in1020.7 mb - 0.00 in0.0 mm 0.00 in0.0 mm
08:15 AM 60.6°F15.9°C 57.3°F14.1°C 89% 4.6 mph W7.4 kmh W 9.0 mph14.5 kmh 30.14 in1020.7 mb - 0.00 in0.0 mm 0.00 in0.0 mm
08:30 AM 61.3°F16.3°C 57.4°F14.1°C 87% 3.6 mph WSW5.8 kmh WSW 9.0 mph14.5 kmh 30.14 in1020.7 mb - 0.00 in0.0 mm 0.00 in0.0 mm
08:45 AM 62.1°F16.7°C 57.9°F14.4°C 86% 4.3 mph W6.9 kmh W 5.1 mph8.2 kmh 30.14 in1020.7 mb - 0.00 in0.0 mm 0.00 in0.0 mm
09:00 AM 62.4°F16.9°C 57.5°F14.2°C 84% 4.5 mph WSW7.2 kmh WSW 7.2 mph11.6 kmh 30.14 in1020.7 mb - 0.00 in0.0 mm 0.00 in0.0 mm
09:15 AM 62.7°F17.1°C 57.1°F13.9°C 82% 2.6 mph W4.2 kmh W 6.2 mph10.0 kmh 30.15 in1021.0 mb - 0.00 in0.0 mm 0.00 in0.0 mm
09:30 AM 63.0°F17.2°C 57.4°F14.1°C 82% 5.3 mph NW8.5 kmh NW 11.3 mph18.2 kmh 30.14 in1020.7 mb - 0.00 in0.0 mm 0.00 in0.0 mm
09:45 AM 64.0°F17.8°C 57.0°F13.9°C 78% 6.2 mph W10.0 kmh W 8.2 mph13.2 kmh 30.15 in1021.0 mb - 0.00 in0.0 mm 0.00 in0.0 mm
10:00 AM 65.4°F18.6°C 57.3°F14.1°C 75% 4.4 mph W7.1 kmh W 7.2 mph11.6 kmh 30.15 in1021.0 mb - 0.00 in0.0 mm 0.00 in0.0 mm
10:15 AM 67.2°F19.6°C 57.5°F14.2°C 71% 8.2 mph SW13.2 kmh SW 13.0 mph20.9 kmh 30.15 in1021.0 mb - 0.00 in0.0 mm 0.00 in0.0 mm
10:30 AM 68.3°F20.2°C 57.3°F14.1°C 68% 3.9 mph SW6.3 kmh SW 7.0 mph11.3 kmh 30.15 in1021.0 mb - 0.00 in0.0 mm 0.00 in0.0 mm
10:45 AM 69.9°F21.1°C 57.6°F14.2°C 65% 4.7 mph WSW7.6 kmh WSW 5.0 mph8.0 kmh 30.16 in1021.3 mb - 0.00 in0.0 mm 0.00 in0.0 mm
11:00 AM 70.9°F21.6°C 57.2°F14.0°C 62% 5.2 mph W8.4 kmh W 11.3 mph18.2 kmh 30.16 in1021.3 mb - 0.00 in0.0 mm 0.00 in0.0 mm
11:15 AM 71.1°F21.7°C 57.8°F14.3°C 63% 6.2 mph WSW10.0 kmh WSW 10.0 mph16.1 kmh 30.16 in1021.3 mb - 0.00 in0.0 mm 0.00 in0.0 mm
11:30 AM 70.7°F21.5°C 57.9°F14.4°C 64% 8.5 mph W13.7 kmh W 14.0 mph22.5 kmh 30.16 in1021.3 mb - 0.00 in0.0 mm 0.00 in0.0 mm
11:45 AM 70.6°F21.4°C 57.4°F14.1°C 63% 5.6 mph SW9.0 kmh SW 10.0 mph16.1 kmh 30.16 in1021.3 mb - 0.00 in0.0 mm 0.00 in0.0 mm
12:00 PM 71.0°F21.7°C 57.7°F14.3°C 63% 5.2 mph W8.4 kmh W 10.3 mph16.6 kmh 30.16 in1021.3 mb - 0.00 in0.0 mm 0.00 in0.0 mm
12:15 PM 71.3°F21.8°C 58.1°F14.5°C 63% 7.4 mph SW11.9 kmh SW 11.0 mph17.7 kmh 30.16 in1021.3 mb - 0.00 in0.0 mm 0.00 in0.0 mm
12:30 PM 71.1°F21.7°C 57.4°F14.1°C 62% 10.5 mph WSW16.9 kmh WSW 15.0 mph24.1 kmh 30.16 in1021.3 mb - 0.00 in0.0 mm 0.00 in0.0 mm
12:45 PM 71.2°F21.8°C 57.9°F14.4°C 63% 8.2 mph WSW13.2 kmh WSW 12.0 mph19.3 kmh 30.16 in1021.3 mb - 0.00 in0.0 mm 0.00 in0.0 mm
01:00 PM 71.0°F21.7°C 57.3°F14.1°C 62% 7.2 mph WSW11.6 kmh WSW 10.0 mph16.1 kmh 30.16 in1021.3 mb - 0.00 in0.0 mm 0.00 in0.0 mm
01:15 PM 70.8°F21.6°C 56.7°F13.7°C 61% 10.5 mph SW16.9 kmh SW 16.0 mph25.7 kmh 30.16 in1021.3 mb - 0.00 in0.0 mm 0.00 in0.0 mm
01:30 PM 69.4°F20.8°C 56.3°F13.5°C 63% 10.4 mph WSW16.7 kmh WSW 14.0 mph22.5 kmh 30.16 in1021.3 mb - 0.00 in0.0 mm 0.00 in0.0 mm
01:45 PM 69.7°F20.9°C 56.9°F13.8°C 64% 8.0 mph WSW12.9 kmh WSW 16.0 mph25.7 kmh 30.16 in1021.3 mb - 0.00 in0.0 mm 0.00 in0.0 mm
02:00 PM 70.3°F21.3°C 57.1°F13.9°C 63% 10.3 mph SW16.6 kmh SW 15.0 mph24.1 kmh 30.17 in1021.7 mb - 0.00 in0.0 mm 0.00 in0.0 mm
02:15 PM 69.8°F21.0°C 56.7°F13.7°C 63% 12.2 mph SW19.6 kmh SW 20.0 mph32.2 kmh 30.16 in1021.3 mb - 0.00 in0.0 mm 0.00 in0.0 mm
02:30 PM 70.1°F21.2°C 56.9°F13.8°C 63% 9.4 mph SW15.1 kmh SW 14.4 mph23.2 kmh 30.17 in1021.7 mb - 0.00 in0.0 mm 0.00 in0.0 mm
02:45 PM 69.5°F20.8°C 56.8°F13.8°C 64% 12.3 mph SW19.8 kmh SW 20.0 mph32.2 kmh 30.16 in1021.3 mb - 0.00 in0.0 mm 0.00 in0.0 mm
03:00 PM 69.1°F20.6°C 58.1°F14.5°C 68% 7.1 mph SSW11.4 kmh SSW 18.0 mph29.0 kmh 30.16 in1021.3 mb - 0.00 in0.0 mm 0.00 in0.0 mm
03:15 PM 68.6°F20.3°C 57.6°F14.2°C 68% 9.9 mph NW15.9 kmh NW 17.0 mph27.4 kmh 30.16 in1021.3 mb - 0.00 in0.0 mm 0.00 in0.0 mm
03:30 PM 68.0°F20.0°C 57.8°F14.3°C 70% 7.9 mph SW12.7 kmh SW 11.3 mph18.2 kmh 30.17 in1021.7 mb - 0.00 in0.0 mm 0.00 in0.0 mm
03:45 PM 67.1°F19.5°C 57.8°F14.3°C 72% 10.6 mph WSW17.1 kmh WSW 17.0 mph27.4 kmh 30.17 in1021.7 mb - 0.00 in0.0 mm 0.00 in0.0 mm
04:00 PM 65.7°F18.7°C 57.5°F14.2°C 75% 8.2 mph SSW13.2 kmh SSW 16.0 mph25.7 kmh 30.18 in1022.0 mb - 0.00 in0.0 mm 0.00 in0.0 mm
04:15 PM 64.6°F18.1°C 57.2°F14.0°C 77% 5.2 mph SW8.4 kmh SW 13.0 mph20.9 kmh 30.17 in1021.7 mb - 0.00 in0.0 mm 0.00 in0.0 mm
04:30 PM 64.0°F17.8°C 57.7°F14.3°C 80% 7.4 mph WNW11.9 kmh WNW 15.5 mph24.9 kmh 30.17 in1021.7 mb - 0.00 in0.0 mm 0.00 in0.0 mm
04:45 PM 63.2°F17.3°C 57.6°F14.2°C 82% 8.2 mph W13.2 kmh W 14.0 mph22.5 kmh 30.17 in1021.7 mb - 0.00 in0.0 mm 0.00 in0.0 mm
05:00 PM 62.4°F16.9°C 57.5°F14.2°C 84% 7.0 mph WSW11.3 kmh WSW 11.0 mph17.7 kmh 30.18 in1022.0 mb - 0.00 in0.0 mm 0.00 in0.0 mm
05:15 PM 61.8°F16.6°C 57.2°F14.0°C 85% 7.1 mph WSW11.4 kmh WSW 12.4 mph20.0 kmh 30.18 in1022.0 mb - 0.00 in0.0 mm 0.00 in0.0 mm
05:30 PM 61.3°F16.3°C 57.4°F14.1°C 87% 7.5 mph SW12.1 kmh SW 12.0 mph19.3 kmh 30.18 in1022.0 mb - 0.00 in0.0 mm 0.00 in0.0 mm
05:45 PM 61.1°F16.2°C 57.5°F14.2°C 88% 6.5 mph SW10.5 kmh SW 19.0 mph30.6 kmh 30.18 in1022.0 mb - 0.00 in0.0 mm 0.00 in0.0 mm
06:00 PM 61.0°F16.1°C 57.7°F14.3°C 89% 8.8 mph SW14.2 kmh SW 14.0 mph22.5 kmh 30.18 in1022.0 mb - 0.00 in0.0 mm 0.00 in0.0 mm
06:15 PM 60.9°F16.1°C 57.9°F14.4°C 90% 4.3 mph WSW6.9 kmh WSW 9.0 mph14.5 kmh 30.18 in1022.0 mb - 0.00 in0.0 mm 0.00 in0.0 mm
06:30 PM 60.8°F16.0°C 57.9°F14.4°C 90% 7.3 mph W11.7 kmh W 12.0 mph19.3 kmh 30.18 in1022.0 mb - 0.00 in0.0 mm 0.00 in0.0 mm
06:45 PM 60.8°F16.0°C 58.2°F14.6°C 91% 6.1 mph SW9.8 kmh SW 10.3 mph16.6 kmh 30.18 in1022.0 mb - 0.00 in0.0 mm 0.00 in0.0 mm
07:00 PM 60.8°F16.0°C 58.2°F14.6°C 91% 6.6 mph SW10.6 kmh SW 18.0 mph29.0 kmh 30.18 in1022.0 mb - 0.00 in0.0 mm 0.00 in0.0 mm
07:15 PM 60.6°F15.9°C 58.3°F14.6°C 92% 2.9 mph W4.7 kmh W 7.0 mph11.3 kmh 30.18 in1022.0 mb - 0.00 in0.0 mm 0.00 in0.0 mm
07:30 PM 60.6°F15.9°C 58.3°F14.6°C 92% 5.7 mph SW9.2 kmh SW 7.0 mph11.3 kmh 30.19 in1022.4 mb - 0.00 in0.0 mm 0.00 in0.0 mm
07:45 PM 60.5°F15.8°C 58.2°F14.6°C 92% 4.8 mph SW7.7 kmh SW 8.0 mph12.9 kmh 30.18 in1022.0 mb - 0.00 in0.0 mm 0.00 in0.0 mm
08:00 PM 60.3°F15.7°C 58.3°F14.6°C 93% 4.7 mph W7.6 kmh W 9.3 mph15.0 kmh 30.19 in1022.4 mb - 0.00 in0.0 mm 0.00 in0.0 mm
08:15 PM 60.3°F15.7°C 58.3°F14.6°C 93% 8.1 mph WSW13.0 kmh WSW 13.0 mph20.9 kmh 30.19 in1022.4 mb - 0.00 in0.0 mm 0.00 in0.0 mm
08:30 PM 60.5°F15.8°C 58.5°F14.7°C 93% 3.8 mph WSW6.1 kmh WSW 10.0 mph16.1 kmh 30.19 in1022.4 mb - 0.00 in0.0 mm 0.00 in0.0 mm
08:45 PM 60.6°F15.9°C 58.6°F14.8°C 93% 7.1 mph SSW11.4 kmh SSW 9.0 mph14.5 kmh 30.19 in1022.4 mb - 0.00 in0.0 mm 0.00 in0.0 mm
09:00 PM 60.6°F15.9°C 58.6°F14.8°C 93% 8.5 mph SW13.7 kmh SW 14.4 mph23.2 kmh 30.20 in1022.7 mb - 0.00 in0.0 mm 0.00 in0.0 mm
09:15 PM 60.5°F15.8°C 58.5°F14.7°C 93% 7.6 mph SSW12.2 kmh SSW 15.0 mph24.1 kmh 30.20 in1022.7 mb - 0.00 in0.0 mm 0.00 in0.0 mm
09:30 PM 60.5°F15.8°C 58.5°F14.7°C 93% 4.7 mph W7.6 kmh W 7.2 mph11.6 kmh 30.20 in1022.7 mb - 0.00 in0.0 mm 0.00 in0.0 mm
09:45 PM 60.4°F15.8°C 58.7°F14.8°C 94% 4.5 mph SW7.2 kmh SW 11.3 mph18.2 kmh 30.20 in1022.7 mb - 0.00 in0.0 mm 0.00 in0.0 mm
10:00 PM 60.4°F15.8°C 58.7°F14.8°C 94% 6.7 mph SW10.8 kmh SW 11.0 mph17.7 kmh 30.20 in1022.7 mb - 0.00 in0.0 mm 0.00 in0.0 mm
10:15 PM 60.4°F15.8°C 58.7°F14.8°C 94% 8.6 mph SW13.8 kmh SW 17.0 mph27.4 kmh 30.20 in1022.7 mb - 0.00 in0.0 mm 0.00 in0.0 mm
10:30 PM 60.5°F15.8°C 58.8°F14.9°C 94% 6.8 mph SW10.9 kmh SW 13.0 mph20.9 kmh 30.20 in1022.7 mb - 0.00 in0.0 mm 0.00 in0.0 mm
10:45 PM 60.5°F15.8°C 58.8°F14.9°C 94% 7.9 mph W12.7 kmh W 11.0 mph17.7 kmh 30.20 in1022.7 mb - 0.00 in0.0 mm 0.00 in0.0 mm
11:00 PM 60.4°F15.8°C 58.7°F14.8°C 94% 5.1 mph WSW8.2 kmh WSW 8.0 mph12.9 kmh 30.20 in1022.7 mb - 0.00 in0.0 mm 0.00 in0.0 mm
11:15 PM 60.4°F15.8°C 58.7°F14.8°C 94% 4.9 mph WSW7.9 kmh WSW 11.3 mph18.2 kmh 30.20 in1022.7 mb - 0.00 in0.0 mm 0.00 in0.0 mm
11:30 PM 60.4°F15.8°C 58.7°F14.8°C 94% 7.1 mph SW11.4 kmh SW 12.0 mph19.3 kmh 30.20 in1022.7 mb - 0.00 in0.0 mm 0.00 in0.0 mm
11:45 PM 60.4°F15.8°C 58.7°F14.8°C 94% 5.1 mph SW8.2 kmh SW 8.0 mph12.9 kmh 30.20 in1022.7 mb - 0.00 in0.0 mm 0.00 in0.0 mm